DAL401 KCMH-CYYZ
Flight info
| Callsign | DAL401 |
|---|---|
| Flight time | 0h 56m |
| Altitude | 31000 |
| Route | RDBUV DCT NOWZU DCT JUSEP DCT DJB DCT QWERI NUBER6 |
| Aircraft | CRJ2/M-SDFGIRW/S |
Departure
| Time | 2026-05-07 21:02 |
|---|---|
| Airport | John Glenn Columbus International Airport (KCMH) |
Arrival
| Time | 2026-05-07 21:58 |
|---|---|
| Airport | Toronto Pearson International Airport (CYYZ) |
| Time | Latitude | Longitude | Altitude | Speed | Heading |
|---|---|---|---|---|---|
| 2026-05-07 20:35 | 39.99657 | -82.88547 | 812 ft | 0 kts | 28° |
| 2026-05-07 20:55 | 39.99649 | -82.88553 | 814 ft | 3 kts | 28° |
| 2026-05-07 20:55 | 39.99632 | -82.88564 | 811 ft | 3 kts | 28° |
| 2026-05-07 20:55 | 39.99616 | -82.88576 | 816 ft | 3 kts | 28° |
| 2026-05-07 20:56 | 39.99609 | -82.88581 | 815 ft | 0 kts | 28° |
| 2026-05-07 20:57 | 39.99609 | -82.88580 | 815 ft | 0 kts | 32° |
| 2026-05-07 20:58 | 39.99616 | -82.88567 | 816 ft | 7 kts | 61° |
| 2026-05-07 20:58 | 39.99608 | -82.88525 | 816 ft | 11 kts | 114° |
| 2026-05-07 20:58 | 39.99597 | -82.88420 | 815 ft | 12 kts | 94° |
| 2026-05-07 20:58 | 39.99587 | -82.88361 | 814 ft | 0 kts | 112° |
| 2026-05-07 20:59 | 39.99585 | -82.88356 | 814 ft | 6 kts | 117° |
| 2026-05-07 20:59 | 39.99530 | -82.88319 | 815 ft | 13 kts | 181° |
| 2026-05-07 21:00 | 39.99416 | -82.88318 | 813 ft | 20 kts | 147° |
| 2026-05-07 21:00 | 39.99383 | -82.88119 | 818 ft | 26 kts | 94° |
| 2026-05-07 21:00 | 39.99370 | -82.87874 | 819 ft | 27 kts | 94° |
| 2026-05-07 21:00 | 39.99357 | -82.87638 | 821 ft | 24 kts | 95° |
| 2026-05-07 21:01 | 39.99319 | -82.87451 | 819 ft | 20 kts | 154° |
| 2026-05-07 21:01 | 39.99192 | -82.87457 | 818 ft | 15 kts | 197° |
| 2026-05-07 21:01 | 39.99175 | -82.87522 | 817 ft | 0 kts | 274° |
| 2026-05-07 21:02 | 39.99183 | -82.87690 | 815 ft | 56 kts | 274° |
| 2026-05-07 21:02 | 39.99232 | -82.88557 | 819 ft | 135 kts | 274° |
| 2026-05-07 21:02 | 39.99299 | -82.90009 | 1242 ft | 176 kts | 273° |
| 2026-05-07 21:02 | 39.99373 | -82.91595 | 2406 ft | 181 kts | 287° |
| 2026-05-07 21:03 | 39.99965 | -82.93130 | 3228 ft | 198 kts | 302° |
| 2026-05-07 21:03 | 40.00717 | -82.94666 | 4449 ft | 205 kts | 304° |
| 2026-05-07 21:03 | 40.01615 | -82.96165 | 5540 ft | 219 kts | 320° |
| 2026-05-07 21:03 | 40.03151 | -82.96808 | 6218 ft | 259 kts | 359° |
| 2026-05-07 21:04 | 40.04863 | -82.95893 | 6925 ft | 272 kts | 37° |
| 2026-05-07 21:04 | 40.06015 | -82.93997 | 7704 ft | 263 kts | 51° |
| 2026-05-07 21:04 | 40.07072 | -82.91931 | 8447 ft | 284 kts | 52° |
| 2026-05-07 21:04 | 40.08194 | -82.89737 | 9300 ft | 292 kts | 52° |
| 2026-05-07 21:05 | 40.09384 | -82.87588 | 10076 ft | 294 kts | 44° |
| 2026-05-07 21:05 | 40.10980 | -82.85826 | 10348 ft | 309 kts | 29° |
| 2026-05-07 21:05 | 40.12883 | -82.84366 | 10613 ft | 325 kts | 22° |
| 2026-05-07 21:05 | 40.14987 | -82.83274 | 11073 ft | 327 kts | 5° |
| 2026-05-07 21:06 | 40.17282 | -82.83119 | 11409 ft | 338 kts | 360° |
| 2026-05-07 21:06 | 40.19610 | -82.82240 | 11868 ft | 354 kts | 17° |
| 2026-05-07 21:06 | 40.21851 | -82.80942 | 12744 ft | 352 kts | 19° |
| 2026-05-07 21:06 | 40.24088 | -82.79589 | 13253 ft | 359 kts | 18° |
| 2026-05-07 21:07 | 40.26436 | -82.78238 | 13227 ft | 378 kts | 17° |
| 2026-05-07 21:07 | 40.28927 | -82.76914 | 13189 ft | 395 kts | 15° |
| 2026-05-07 21:07 | 40.31544 | -82.75622 | 13178 ft | 403 kts | 14° |
| 2026-05-07 21:07 | 40.34181 | -82.74394 | 13161 ft | 402 kts | 13° |
| 2026-05-07 21:08 | 40.36814 | -82.73228 | 13489 ft | 393 kts | 13° |
| 2026-05-07 21:08 | 40.39346 | -82.72026 | 14032 ft | 384 kts | 14° |
| 2026-05-07 21:08 | 40.41853 | -82.70772 | 14496 ft | 387 kts | 14° |
| 2026-05-07 21:08 | 40.44369 | -82.69482 | 14944 ft | 389 kts | 14° |
| 2026-05-07 21:09 | 40.46896 | -82.68173 | 15393 ft | 392 kts | 14° |
| 2026-05-07 21:09 | 40.49437 | -82.66857 | 15856 ft | 394 kts | 14° |
| 2026-05-07 21:09 | 40.51993 | -82.65533 | 16318 ft | 396 kts | 14° |
| 2026-05-07 21:09 | 40.54511 | -82.64142 | 16782 ft | 398 kts | 15° |
| 2026-05-07 21:10 | 40.57054 | -82.62672 | 17269 ft | 400 kts | 16° |
| 2026-05-07 21:10 | 40.59600 | -82.61169 | 17681 ft | 404 kts | 16° |
| 2026-05-07 21:10 | 40.62189 | -82.59636 | 17849 ft | 413 kts | 16° |
| 2026-05-07 21:10 | 40.64837 | -82.58072 | 17940 ft | 419 kts | 16° |
| 2026-05-07 21:11 | 40.67500 | -82.56496 | 17974 ft | 421 kts | 16° |
| 2026-05-07 21:11 | 40.70167 | -82.54916 | 18294 ft | 419 kts | 16° |
| 2026-05-07 21:11 | 40.75507 | -82.51758 | 19158 ft | 422 kts | 15° |
| 2026-05-07 21:12 | 40.78196 | -82.50177 | 19608 ft | 425 kts | 15° |
| 2026-05-07 21:12 | 40.80916 | -82.48591 | 20053 ft | 429 kts | 14° |
| 2026-05-07 21:12 | 40.83657 | -82.46986 | 20507 ft | 433 kts | 14° |
| 2026-05-07 21:12 | 40.86414 | -82.45345 | 20975 ft | 436 kts | 14° |
| 2026-05-07 21:13 | 40.89188 | -82.43685 | 21446 ft | 439 kts | 14° |
| 2026-05-07 21:13 | 40.91976 | -82.42015 | 21928 ft | 441 kts | 13° |
| 2026-05-07 21:13 | 40.94782 | -82.40337 | 22422 ft | 444 kts | 13° |
| 2026-05-07 21:13 | 40.97604 | -82.38656 | 22921 ft | 446 kts | 13° |
| 2026-05-07 21:14 | 41.00453 | -82.36965 | 23433 ft | 452 kts | 12° |
| 2026-05-07 21:14 | 41.03342 | -82.35259 | 23884 ft | 458 kts | 12° |
| 2026-05-07 21:14 | 41.06272 | -82.33533 | 24304 ft | 463 kts | 12° |
| 2026-05-07 21:14 | 41.09233 | -82.31788 | 24735 ft | 469 kts | 12° |
| 2026-05-07 21:15 | 41.12232 | -82.30021 | 25177 ft | 473 kts | 12° |
| 2026-05-07 21:15 | 41.15252 | -82.28241 | 25618 ft | 477 kts | 12° |
| 2026-05-07 21:15 | 41.18297 | -82.26444 | 26069 ft | 481 kts | 12° |
| 2026-05-07 21:15 | 41.21367 | -82.24633 | 26526 ft | 484 kts | 12° |
| 2026-05-07 21:16 | 41.24460 | -82.22808 | 26992 ft | 487 kts | 12° |
| 2026-05-07 21:16 | 41.27566 | -82.20975 | 27449 ft | 490 kts | 12° |
| 2026-05-07 21:16 | 41.30690 | -82.19136 | 27937 ft | 492 kts | 12° |
| 2026-05-07 21:16 | 41.33842 | -82.17467 | 28403 ft | 478 kts | 2° |
| 2026-05-07 21:17 | 41.37032 | -82.16899 | 28911 ft | 453 kts | 348° |
| 2026-05-07 21:17 | 41.40165 | -82.16823 | 29435 ft | 449 kts | 345° |
| 2026-05-07 21:17 | 41.43283 | -82.16884 | 29961 ft | 447 kts | 343° |
| 2026-05-07 21:17 | 41.46394 | -82.17009 | 30409 ft | 447 kts | 343° |
| 2026-05-07 21:18 | 41.49508 | -82.17173 | 30715 ft | 450 kts | 343° |
| 2026-05-07 21:18 | 41.52660 | -82.17369 | 30854 ft | 458 kts | 342° |
| 2026-05-07 21:18 | 41.59101 | -82.17820 | 30963 ft | 476 kts | 343° |
| 2026-05-07 21:19 | 41.65837 | -82.18316 | 30979 ft | 493 kts | 343° |
| 2026-05-07 21:19 | 41.72785 | -82.18825 | 30974 ft | 507 kts | 344° |
| 2026-05-07 21:20 | 41.79920 | -82.19343 | 30973 ft | 519 kts | 345° |
| 2026-05-07 21:20 | 41.87216 | -82.19872 | 30969 ft | 530 kts | 345° |
| 2026-05-07 21:21 | 41.93383 | -82.20320 | 30961 ft | 538 kts | 346° |
| 2026-05-07 21:21 | 42.00899 | -82.20861 | 30957 ft | 540 kts | 346° |
| 2026-05-07 21:22 | 42.08321 | -82.21373 | 30948 ft | 529 kts | 346° |
| 2026-05-07 21:22 | 42.15593 | -82.21878 | 30944 ft | 515 kts | 346° |
| 2026-05-07 21:23 | 42.19118 | -82.22117 | 30937 ft | 500 kts | 346° |
| 2026-05-07 21:23 | 42.22551 | -82.22348 | 30935 ft | 487 kts | 346° |
| 2026-05-07 21:23 | 42.25894 | -82.22571 | 30934 ft | 475 kts | 346° |
| 2026-05-07 21:23 | 42.29200 | -82.22513 | 30848 ft | 483 kts | 356° |
| 2026-05-07 21:24 | 42.32502 | -82.21124 | 30335 ft | 514 kts | 18° |
| 2026-05-07 21:24 | 42.35477 | -82.18276 | 29830 ft | 537 kts | 37° |
| 2026-05-07 21:24 | 42.37878 | -82.14337 | 29302 ft | 546 kts | 49° |
| 2026-05-07 21:24 | 42.40045 | -82.10116 | 28816 ft | 546 kts | 51° |
| 2026-05-07 21:25 | 42.42167 | -82.05870 | 28330 ft | 544 kts | 52° |
| 2026-05-07 21:25 | 42.44295 | -82.01645 | 27847 ft | 542 kts | 51° |
| 2026-05-07 21:25 | 42.46428 | -81.97501 | 27371 ft | 529 kts | 51° |
| 2026-05-07 21:25 | 42.48540 | -81.93490 | 26899 ft | 516 kts | 50° |
| 2026-05-07 21:26 | 42.50605 | -81.89653 | 26444 ft | 505 kts | 50° |
| 2026-05-07 21:26 | 42.52708 | -81.85826 | 25977 ft | 494 kts | 49° |
| 2026-05-07 21:26 | 42.54737 | -81.82206 | 25533 ft | 484 kts | 49° |
| 2026-05-07 21:26 | 42.56809 | -81.78579 | 25083 ft | 475 kts | 49° |
| 2026-05-07 21:27 | 42.58836 | -81.75091 | 24648 ft | 467 kts | 48° |
| 2026-05-07 21:27 | 42.60850 | -81.71678 | 24217 ft | 459 kts | 48° |
| 2026-05-07 21:27 | 42.62820 | -81.68387 | 23802 ft | 452 kts | 47° |
| 2026-05-07 21:27 | 42.64803 | -81.65113 | 23355 ft | 445 kts | 47° |
| 2026-05-07 21:28 | 42.66770 | -81.61900 | 22838 ft | 439 kts | 47° |
| 2026-05-07 21:28 | 42.68722 | -81.58737 | 22330 ft | 434 kts | 47° |
| 2026-05-07 21:28 | 42.70659 | -81.55625 | 21835 ft | 428 kts | 46° |
| 2026-05-07 21:28 | 42.72581 | -81.52558 | 21351 ft | 424 kts | 46° |
| 2026-05-07 21:29 | 42.74476 | -81.49550 | 20870 ft | 413 kts | 46° |
| 2026-05-07 21:29 | 42.76327 | -81.46623 | 20395 ft | 403 kts | 46° |
| 2026-05-07 21:29 | 42.78138 | -81.43771 | 19925 ft | 394 kts | 46° |
| 2026-05-07 21:29 | 42.79913 | -81.40984 | 19465 ft | 385 kts | 46° |
| 2026-05-07 21:30 | 42.81654 | -81.38280 | 19187 ft | 372 kts | 43° |
| 2026-05-07 21:30 | 42.83689 | -81.36333 | 19003 ft | 347 kts | 16° |
| 2026-05-07 21:30 | 42.85942 | -81.35538 | 18940 ft | 328 kts | 11° |
| 2026-05-07 21:30 | 42.87905 | -81.33987 | 18758 ft | 335 kts | 40° |
| 2026-05-07 21:31 | 42.89285 | -81.31399 | 18639 ft | 335 kts | 56° |
| 2026-05-07 21:31 | 42.90425 | -81.28697 | 18783 ft | 323 kts | 58° |
| 2026-05-07 21:31 | 42.91500 | -81.26058 | 18863 ft | 314 kts | 58° |
| 2026-05-07 21:31 | 42.92565 | -81.23505 | 18902 ft | 307 kts | 57° |
| 2026-05-07 21:32 | 42.93649 | -81.21028 | 18920 ft | 301 kts | 56° |
| 2026-05-07 21:32 | 42.94757 | -81.18626 | 18933 ft | 296 kts | 54° |
| 2026-05-07 21:32 | 42.95904 | -81.16264 | 18947 ft | 304 kts | 53° |
| 2026-05-07 21:32 | 42.97135 | -81.13847 | 18960 ft | 315 kts | 52° |
| 2026-05-07 21:33 | 42.98450 | -81.11362 | 18710 ft | 334 kts | 51° |
| 2026-05-07 21:33 | 42.99884 | -81.08732 | 18296 ft | 356 kts | 50° |
| 2026-05-07 21:33 | 43.01425 | -81.05966 | 17827 ft | 375 kts | 50° |
| 2026-05-07 21:33 | 43.03035 | -81.03066 | 17341 ft | 391 kts | 52° |
| 2026-05-07 21:34 | 43.04606 | -80.99958 | 16865 ft | 404 kts | 54° |
| 2026-05-07 21:34 | 43.06510 | -80.97108 | 16365 ft | 410 kts | 34° |
| 2026-05-07 21:34 | 43.09047 | -80.95381 | 15912 ft | 405 kts | 16° |
| 2026-05-07 21:34 | 43.11525 | -80.93683 | 15534 ft | 397 kts | 35° |
| 2026-05-07 21:35 | 43.13383 | -80.90962 | 15102 ft | 387 kts | 50° |
| 2026-05-07 21:35 | 43.14955 | -80.88039 | 14650 ft | 376 kts | 53° |
| 2026-05-07 21:35 | 43.16444 | -80.85138 | 14190 ft | 368 kts | 53° |
| 2026-05-07 21:35 | 43.17904 | -80.82309 | 13737 ft | 360 kts | 53° |
| 2026-05-07 21:36 | 43.19345 | -80.79599 | 13295 ft | 352 kts | 52° |
| 2026-05-07 21:36 | 43.20810 | -80.76939 | 13104 ft | 338 kts | 51° |
| 2026-05-07 21:36 | 43.22213 | -80.74477 | 13010 ft | 324 kts | 50° |
| 2026-05-07 21:36 | 43.23598 | -80.72117 | 12954 ft | 313 kts | 49° |
| 2026-05-07 21:37 | 43.24965 | -80.69843 | 12939 ft | 304 kts | 48° |
| 2026-05-07 21:37 | 43.26311 | -80.67653 | 12937 ft | 297 kts | 47° |
| 2026-05-07 21:37 | 43.27648 | -80.65520 | 12927 ft | 293 kts | 47° |
| 2026-05-07 21:37 | 43.29006 | -80.63386 | 12935 ft | 300 kts | 46° |
| 2026-05-07 21:38 | 43.30403 | -80.61215 | 12961 ft | 306 kts | 46° |
| 2026-05-07 21:38 | 43.31837 | -80.59004 | 12720 ft | 319 kts | 46° |
| 2026-05-07 21:38 | 43.33354 | -80.56677 | 12251 ft | 329 kts | 46° |
| 2026-05-07 21:38 | 43.34890 | -80.54328 | 11776 ft | 332 kts | 46° |
| 2026-05-07 21:39 | 43.36438 | -80.51960 | 11354 ft | 332 kts | 46° |
| 2026-05-07 21:39 | 43.37968 | -80.49617 | 11164 ft | 326 kts | 46° |
| 2026-05-07 21:39 | 43.39459 | -80.47332 | 11064 ft | 316 kts | 46° |
| 2026-05-07 21:39 | 43.40905 | -80.45116 | 11025 ft | 307 kts | 45° |
| 2026-05-07 21:40 | 43.42314 | -80.42963 | 11007 ft | 298 kts | 45° |
| 2026-05-07 21:40 | 43.43684 | -80.40875 | 10996 ft | 290 kts | 45° |
| 2026-05-07 21:40 | 43.44954 | -80.38760 | 10986 ft | 285 kts | 55° |
| 2026-05-07 21:40 | 43.45919 | -80.36413 | 10996 ft | 279 kts | 62° |
| 2026-05-07 21:41 | 43.46737 | -80.34015 | 10996 ft | 274 kts | 65° |
| 2026-05-07 21:41 | 43.47478 | -80.31593 | 11005 ft | 280 kts | 67° |
| 2026-05-07 21:41 | 43.48204 | -80.29076 | 11006 ft | 284 kts | 68° |
| 2026-05-07 21:41 | 43.48905 | -80.26557 | 11007 ft | 287 kts | 68° |
| 2026-05-07 21:42 | 43.49611 | -80.23979 | 11009 ft | 289 kts | 69° |
| 2026-05-07 21:42 | 43.50316 | -80.21377 | 11011 ft | 291 kts | 69° |
| 2026-05-07 21:42 | 43.51023 | -80.18748 | 11011 ft | 293 kts | 69° |
| 2026-05-07 21:42 | 43.51729 | -80.16106 | 11013 ft | 295 kts | 69° |
| 2026-05-07 21:43 | 43.52440 | -80.13449 | 11015 ft | 296 kts | 69° |
| 2026-05-07 21:43 | 43.53157 | -80.10769 | 10754 ft | 299 kts | 69° |
| 2026-05-07 21:43 | 43.53873 | -80.08086 | 10307 ft | 298 kts | 69° |
| 2026-05-07 21:43 | 43.54587 | -80.05415 | 9857 ft | 296 kts | 69° |
| 2026-05-07 21:44 | 43.55297 | -80.02761 | 9367 ft | 294 kts | 69° |
| 2026-05-07 21:44 | 43.56003 | -80.00125 | 8878 ft | 292 kts | 69° |
| 2026-05-07 21:44 | 43.56704 | -79.97500 | 8420 ft | 289 kts | 69° |
| 2026-05-07 21:44 | 43.57388 | -79.94942 | 8191 ft | 279 kts | 69° |
| 2026-05-07 21:45 | 43.58051 | -79.92456 | 8092 ft | 274 kts | 69° |
| 2026-05-07 21:45 | 43.58638 | -79.89904 | 8056 ft | 284 kts | 76° |
| 2026-05-07 21:45 | 43.59011 | -79.87189 | 8040 ft | 291 kts | 81° |
| 2026-05-07 21:45 | 43.59246 | -79.84431 | 8019 ft | 289 kts | 84° |
| 2026-05-07 21:46 | 43.59395 | -79.81662 | 8012 ft | 290 kts | 86° |
| 2026-05-07 21:46 | 43.59490 | -79.78890 | 8008 ft | 290 kts | 88° |
| 2026-05-07 21:46 | 43.59547 | -79.76108 | 8000 ft | 290 kts | 89° |
| 2026-05-07 21:46 | 43.59581 | -79.73332 | 8001 ft | 289 kts | 89° |
| 2026-05-07 21:47 | 43.59601 | -79.70626 | 7987 ft | 281 kts | 90° |
| 2026-05-07 21:47 | 43.59614 | -79.67914 | 7548 ft | 283 kts | 90° |
| 2026-05-07 21:47 | 43.59622 | -79.65211 | 7092 ft | 282 kts | 90° |
| 2026-05-07 21:47 | 43.59628 | -79.62554 | 6670 ft | 268 kts | 89° |
| 2026-05-07 21:48 | 43.59632 | -79.60056 | 6215 ft | 254 kts | 89° |
| 2026-05-07 21:48 | 43.59655 | -79.57671 | 5722 ft | 244 kts | 85° |
| 2026-05-07 21:48 | 43.60160 | -79.55505 | 5218 ft | 234 kts | 62° |
| 2026-05-07 21:48 | 43.60947 | -79.53576 | 4760 ft | 228 kts | 55° |
| 2026-05-07 21:49 | 43.61832 | -79.51801 | 4335 ft | 221 kts | 50° |
| 2026-05-07 21:49 | 43.62764 | -79.50150 | 4125 ft | 215 kts | 47° |
| 2026-05-07 21:49 | 43.63703 | -79.48616 | 4056 ft | 203 kts | 46° |
| 2026-05-07 21:49 | 43.64621 | -79.47190 | 3967 ft | 197 kts | 45° |
| 2026-05-07 21:50 | 43.65549 | -79.45798 | 3816 ft | 194 kts | 44° |
| 2026-05-07 21:50 | 43.66457 | -79.44453 | 3645 ft | 190 kts | 42° |
| 2026-05-07 21:50 | 43.67378 | -79.43152 | 3438 ft | 189 kts | 42° |
| 2026-05-07 21:50 | 43.68277 | -79.41847 | 3279 ft | 186 kts | 43° |
| 2026-05-07 21:51 | 43.69153 | -79.40540 | 3146 ft | 186 kts | 44° |
| 2026-05-07 21:51 | 43.70078 | -79.39167 | 3390 ft | 197 kts | 43° |
| 2026-05-07 21:51 | 43.70963 | -79.37846 | 3544 ft | 185 kts | 43° |
| 2026-05-07 21:51 | 43.71826 | -79.36548 | 3671 ft | 180 kts | 44° |
| 2026-05-07 21:52 | 43.72693 | -79.35229 | 3499 ft | 194 kts | 45° |
| 2026-05-07 21:52 | 43.73812 | -79.34112 | 3038 ft | 211 kts | 11° |
| 2026-05-07 21:52 | 43.75182 | -79.34384 | 2904 ft | 190 kts | 327° |
| 2026-05-07 21:52 | 43.76208 | -79.35346 | 2979 ft | 170 kts | 321° |
| 2026-05-07 21:53 | 43.77125 | -79.36310 | 2906 ft | 163 kts | 319° |
| 2026-05-07 21:53 | 43.77861 | -79.37506 | 2574 ft | 166 kts | 309° |
| 2026-05-07 21:53 | 43.78656 | -79.38680 | 2254 ft | 164 kts | 303° |
| 2026-05-07 21:53 | 43.78859 | -79.40208 | 1803 ft | 171 kts | 264° |
| 2026-05-07 21:54 | 43.78676 | -79.41739 | 1844 ft | 150 kts | 262° |
| 2026-05-07 21:54 | 43.78478 | -79.43098 | 1929 ft | 155 kts | 261° |
| 2026-05-07 21:54 | 43.78247 | -79.44576 | 2453 ft | 159 kts | 258° |
| 2026-05-07 21:54 | 43.77938 | -79.46179 | 2511 ft | 187 kts | 254° |
| 2026-05-07 21:55 | 43.77428 | -79.47827 | 2517 ft | 180 kts | 232° |
| 2026-05-07 21:55 | 43.76492 | -79.48786 | 2498 ft | 152 kts | 217° |
| 2026-05-07 21:55 | 43.75610 | -79.49529 | 2359 ft | 155 kts | 217° |
| 2026-05-07 21:55 | 43.74726 | -79.50303 | 2272 ft | 144 kts | 219° |
| 2026-05-07 21:56 | 43.73910 | -79.51090 | 2045 ft | 145 kts | 221° |
| 2026-05-07 21:56 | 43.73120 | -79.51932 | 1811 ft | 144 kts | 223° |
| 2026-05-07 21:56 | 43.72346 | -79.52803 | 1528 ft | 147 kts | 224° |
| 2026-05-07 21:56 | 43.71527 | -79.53823 | 1386 ft | 166 kts | 229° |
| 2026-05-07 21:57 | 43.70728 | -79.55029 | 1386 ft | 173 kts | 232° |
| 2026-05-07 21:57 | 43.69984 | -79.56173 | 1321 ft | 144 kts | 231° |
| 2026-05-07 21:57 | 43.69345 | -79.57092 | 990 ft | 133 kts | 229° |
| 2026-05-07 21:57 | 43.68698 | -79.58046 | 940 ft | 127 kts | 230° |
| 2026-05-07 21:58 | 43.68045 | -79.58955 | 766 ft | 142 kts | 230° |
| 2026-05-07 21:58 | 43.67398 | -79.59897 | 583 ft | 120 kts | 229° |
| 2026-05-07 21:58 | 43.66926 | -79.60589 | 545 ft | 60 kts | 227° |
| 2026-05-07 21:58 | 43.66725 | -79.60995 | 547 ft | 37 kts | 251° |
| 2026-05-07 21:59 | 43.66685 | -79.61234 | 542 ft | 7 kts | 286° |
| 2026-05-07 21:59 | 43.66687 | -79.61243 | 542 ft | 0 kts | 293° |
| 2026-05-07 22:00 | 43.66721 | -79.61300 | 543 ft | 18 kts | 316° |
| 2026-05-07 22:00 | 43.66832 | -79.61445 | 542 ft | 26 kts | 316° |
| 2026-05-07 22:00 | 43.66931 | -79.61473 | 546 ft | 13 kts | 43° |
| 2026-05-07 22:00 | 43.66984 | -79.61397 | 554 ft | 10 kts | 47° |
| 2026-05-07 22:01 | 43.66988 | -79.61391 | 550 ft | 0 kts | 46° |
| 2026-05-07 22:01 | 43.67005 | -79.61366 | 548 ft | 17 kts | 46° |
| 2026-05-07 22:01 | 43.67107 | -79.61218 | 546 ft | 23 kts | 47° |
| 2026-05-07 22:02 | 43.67227 | -79.61199 | 546 ft | 18 kts | 316° |
| 2026-05-07 22:02 | 43.67306 | -79.61302 | 547 ft | 14 kts | 317° |
| 2026-05-07 22:02 | 43.67370 | -79.61384 | 548 ft | 13 kts | 317° |
| 2026-05-07 22:02 | 43.67436 | -79.61470 | 551 ft | 13 kts | 316° |
| 2026-05-07 22:03 | 43.67524 | -79.61585 | 552 ft | 22 kts | 316° |
| 2026-05-07 22:03 | 43.67647 | -79.61748 | 556 ft | 24 kts | 316° |
| 2026-05-07 22:03 | 43.67743 | -79.61872 | 555 ft | 17 kts | 317° |
| 2026-05-07 22:03 | 43.67825 | -79.61979 | 555 ft | 16 kts | 316° |
| 2026-05-07 22:04 | 43.67916 | -79.62069 | 556 ft | 16 kts | 339° |
| 2026-05-07 22:04 | 43.68002 | -79.62142 | 554 ft | 14 kts | 316° |
| 2026-05-07 22:04 | 43.68080 | -79.62244 | 555 ft | 17 kts | 316° |
| 2026-05-07 22:04 | 43.68165 | -79.62356 | 557 ft | 17 kts | 317° |
| 2026-05-07 22:05 | 43.68260 | -79.62421 | 559 ft | 17 kts | 31° |
| 2026-05-07 22:05 | 43.68315 | -79.62278 | 562 ft | 19 kts | 46° |
| 2026-05-07 22:05 | 43.68426 | -79.62179 | 563 ft | 20 kts | 14° |
| 2026-05-07 22:05 | 43.68498 | -79.62135 | 563 ft | 5 kts | 63° |
| 2026-05-07 22:06 | 43.68503 | -79.62121 | 560 ft | 1 kts | 64° |
| 2026-05-07 22:06 | 43.68509 | -79.62105 | 564 ft | 0 kts | 64° |